createdAt,value
2023-01-26T00:00:27.971Z,78.03
2023-01-26T00:03:01.276Z,77.88
2023-01-26T00:05:15.306Z,78.26
2023-01-26T00:07:28.513Z,78.54
2023-01-26T00:09:41.646Z,78.92
2023-01-26T00:11:55.713Z,78.95
2023-01-26T00:14:09.023Z,79.10
2023-01-26T00:16:22.892Z,79.17
2023-01-26T00:18:36.203Z,78.41
2023-01-26T00:20:49.304Z,78.09
2023-01-26T00:23:02.997Z,78.39
2023-01-26T00:25:16.244Z,78.56
2023-01-26T00:27:32.543Z,78.85
2023-01-26T00:29:46.423Z,78.91
2023-01-26T00:31:59.994Z,78.84
2023-01-26T00:34:12.877Z,79.31
2023-01-26T00:36:28.783Z,79.47
2023-01-26T00:38:42.914Z,79.47
2023-01-26T00:40:56.266Z,79.53
2023-01-26T00:43:10.533Z,79.64
2023-01-26T00:45:23.964Z,79.51
2023-01-26T00:47:36.963Z,79.42
2023-01-26T00:49:51.138Z,79.40
2023-01-26T00:52:04.443Z,79.35
2023-01-26T00:54:17.997Z,79.55
2023-01-26T00:56:32.887Z,79.60
2023-01-26T00:58:49.545Z,79.46
2023-01-26T01:01:03.164Z,79.39
2023-01-26T01:03:16.124Z,79.28
2023-01-26T01:05:30.473Z,79.29
2023-01-26T01:07:43.957Z,79.60
2023-01-26T01:09:57.023Z,79.65
2023-01-26T01:12:13.340Z,79.66
2023-01-26T01:14:26.296Z,79.58
2023-01-26T01:16:39.403Z,79.51
2023-01-26T01:18:52.364Z,79.50
2023-01-26T01:21:08.676Z,79.49
2023-01-26T01:23:21.893Z,79.58
2023-01-26T01:25:35.898Z,79.47
2023-01-26T01:27:49.164Z,79.67
2023-01-26T01:30:02.798Z,79.75
2023-01-26T01:32:16.064Z,79.89
2023-01-26T01:34:29.085Z,79.93
2023-01-26T01:36:42.265Z,79.97
2023-01-26T01:38:55.765Z,79.95
2023-01-26T01:41:10.803Z,80.28
2023-01-26T01:43:24.397Z,80.23
2023-01-26T01:45:46.295Z,80.59
2023-01-26T01:48:02.799Z,80.70
2023-01-26T01:50:21.623Z,80.84
2023-01-26T01:52:36.352Z,80.93
2023-01-26T01:54:54.237Z,80.86
2023-01-26T01:57:16.884Z,81.11
2023-01-26T01:59:30.978Z,81.28
2023-01-26T02:01:45.282Z,81.36
2023-01-26T02:04:03.353Z,81.43
2023-01-26T02:06:22.864Z,81.44
2023-01-26T02:08:39.746Z,81.37
2023-01-26T02:10:57.827Z,81.34
2023-01-26T02:13:13.065Z,81.48
2023-01-26T02:15:28.086Z,81.58
2023-01-26T02:17:42.111Z,81.77
2023-01-26T02:20:01.804Z,81.55
2023-01-26T02:22:20.944Z,81.09
2023-01-26T02:24:38.848Z,81.17
2023-01-26T02:26:52.593Z,81.23
2023-01-26T02:29:08.363Z,81.38
2023-01-26T02:31:23.261Z,81.46
2023-01-26T02:33:38.064Z,81.60
2023-01-26T02:35:51.083Z,81.77
2023-01-26T02:38:04.348Z,81.89
2023-01-26T02:40:28.691Z,81.93
2023-01-26T02:42:45.665Z,82.07
2023-01-26T02:45:00.037Z,82.23
2023-01-26T02:47:20.987Z,82.18
2023-01-26T02:49:53.227Z,82.24
2023-01-26T02:52:07.955Z,82.08
2023-01-26T02:54:34.410Z,81.98
2023-01-26T02:56:48.246Z,82.26
2023-01-26T02:59:01.263Z,82.63
2023-01-26T03:01:14.921Z,82.76
2023-01-26T03:03:44.619Z,82.69
2023-01-26T03:05:59.524Z,82.52
2023-01-26T03:08:13.043Z,82.31
2023-01-26T03:10:29.855Z,82.52
2023-01-26T03:12:44.585Z,82.57
2023-01-26T03:15:10.913Z,82.70
2023-01-26T03:17:27.708Z,82.84
2023-01-26T03:19:59.994Z,83.02
2023-01-26T03:22:30.573Z,82.97
2023-01-26T03:25:00.944Z,82.83
2023-01-26T03:27:31.187Z,82.86
2023-01-26T03:29:48.265Z,83.03
2023-01-26T03:32:02.264Z,83.17
2023-01-26T03:34:15.980Z,83.02
2023-01-26T03:36:30.842Z,83.08
2023-01-26T03:38:44.994Z,83.24
2023-01-26T03:41:20.190Z,83.04
2023-01-26T03:43:50.510Z,82.76
2023-01-26T03:46:22.145Z,82.69
2023-01-26T03:48:52.820Z,82.78
2023-01-26T03:51:22.135Z,83.05
2023-01-26T03:53:53.017Z,82.72
2023-01-26T03:56:21.985Z,82.74
2023-01-26T03:58:36.893Z,82.46
2023-01-26T04:00:51.510Z,82.81
2023-01-26T04:03:20.955Z,83.01
2023-01-26T04:05:51.504Z,83.20
2023-01-26T04:08:30.815Z,83.18
2023-01-26T04:10:46.785Z,83.24
2023-01-26T04:13:16.827Z,83.28
2023-01-26T04:15:52.393Z,83.16
2023-01-26T04:18:28.714Z,82.97
2023-01-26T04:23:27.826Z,83.50
2023-01-26T04:25:41.364Z,83.76
2023-01-26T04:27:54.715Z,84.04
2023-01-26T04:30:08.645Z,84.16
2023-01-26T04:32:22.267Z,84.21
2023-01-26T04:34:35.484Z,83.98
2023-01-26T04:36:56.184Z,83.68
2023-01-26T04:39:13.006Z,83.81
2023-01-26T04:41:32.383Z,83.74
2023-01-26T04:43:50.665Z,83.66
2023-01-26T04:46:08.539Z,83.66
2023-01-26T04:48:23.469Z,83.85
2023-01-26T04:50:36.823Z,83.88
2023-01-26T04:52:49.670Z,83.88
2023-01-26T04:55:02.803Z,84.00
2023-01-26T04:57:17.883Z,84.44
2023-01-26T04:59:34.747Z,84.58
2023-01-26T05:01:49.119Z,84.92
2023-01-26T05:04:04.822Z,84.93
2023-01-26T05:06:20.263Z,84.74
2023-01-26T05:08:36.183Z,84.36
2023-01-26T05:10:49.322Z,84.43
2023-01-26T05:13:11.093Z,84.66
2023-01-26T05:15:41.061Z,85.26
2023-01-26T05:18:01.085Z,85.26
2023-01-26T05:20:41.703Z,85.04
2023-01-26T05:23:08.986Z,85.09
2023-01-26T05:25:40.644Z,85.09
2023-01-26T05:27:56.594Z,85.09
2023-01-26T05:30:14.470Z,84.90
2023-01-26T05:32:28.583Z,84.87
2023-01-26T05:34:41.806Z,85.52
2023-01-26T05:36:56.324Z,85.78
2023-01-26T05:39:10.035Z,85.99
2023-01-26T05:41:22.813Z,85.66
2023-01-26T05:43:53.058Z,85.35
2023-01-26T05:46:22.695Z,85.06
2023-01-26T05:48:35.683Z,84.94
2023-01-26T05:50:52.579Z,84.86
2023-01-26T05:53:07.837Z,85.07
2023-01-26T05:55:22.861Z,85.13
2023-01-26T05:57:36.125Z,85.22
2023-01-26T05:59:51.384Z,85.44
2023-01-26T06:02:04.984Z,85.21
2023-01-26T06:04:18.346Z,85.23
2023-01-26T06:06:38.078Z,85.11
2023-01-26T06:09:06.599Z,84.92
2023-01-26T06:11:19.944Z,84.81
2023-01-26T06:13:51.742Z,84.95
2023-01-26T06:16:10.436Z,85.02
2023-01-26T06:18:23.742Z,85.10
2023-01-26T06:20:40.775Z,85.50
2023-01-26T06:22:54.748Z,85.78
2023-01-26T06:25:08.337Z,85.95
2023-01-26T06:27:21.992Z,86.01
2023-01-26T06:29:37.253Z,86.07
2023-01-26T06:31:50.282Z,85.82
2023-01-26T06:34:04.432Z,85.94
2023-01-26T06:36:19.223Z,86.58
2023-01-26T06:38:34.996Z,87.08
2023-01-26T06:40:48.559Z,87.85
2023-01-26T06:43:02.483Z,87.90
2023-01-26T06:45:17.828Z,88.05
2023-01-26T06:47:31.871Z,87.79
2023-01-26T06:49:46.143Z,87.94
2023-01-26T06:52:06.273Z,88.18
2023-01-26T06:54:31.574Z,88.10
2023-01-26T06:57:17.433Z,87.96
2023-01-26T07:00:03.034Z,87.73
2023-01-26T07:02:42.137Z,87.77
2023-01-26T07:04:56.084Z,87.97
2023-01-26T07:07:10.013Z,88.21
2023-01-26T07:09:23.885Z,88.43
2023-01-26T07:11:37.306Z,88.48
2023-01-26T07:13:51.043Z,88.35
2023-01-26T07:16:10.033Z,88.30
2023-01-26T07:18:23.033Z,88.02
2023-01-26T07:20:35.936Z,88.10
2023-01-26T07:22:49.305Z,88.16
2023-01-26T07:25:02.363Z,88.10
2023-01-26T07:27:18.114Z,88.11
2023-01-26T07:29:32.163Z,88.13
2023-01-26T07:31:46.145Z,88.21
2023-01-26T07:33:59.937Z,88.31
2023-01-26T07:36:14.086Z,88.11
2023-01-26T07:38:27.574Z,87.91
2023-01-26T07:40:40.633Z,87.92
2023-01-26T07:42:53.572Z,87.75
2023-01-26T07:45:26.866Z,87.89
2023-01-26T07:47:39.888Z,87.98
2023-01-26T07:49:52.773Z,87.99
2023-01-26T07:52:05.640Z,87.77
2023-01-26T07:54:18.875Z,87.64
2023-01-26T07:56:32.113Z,87.42
2023-01-26T07:58:45.972Z,87.54
2023-01-26T08:00:59.145Z,87.56
2023-01-26T08:03:12.579Z,87.57
2023-01-26T08:05:30.590Z,87.74
2023-01-26T08:07:44.801Z,88.11
2023-01-26T08:09:58.374Z,88.73
2023-01-26T08:12:12.600Z,88.82
2023-01-26T08:14:31.086Z,88.99
2023-01-26T08:24:23.793Z,87.89
2023-01-26T08:26:38.825Z,87.94
2023-01-26T08:28:52.814Z,87.63
2023-01-26T08:31:12.664Z,87.48
2023-01-26T08:33:26.827Z,87.21
2023-01-26T08:35:41.083Z,87.11
2023-01-26T08:37:54.769Z,86.69
2023-01-26T08:40:09.071Z,86.44
2023-01-26T08:42:22.892Z,86.55
2023-01-26T08:44:39.910Z,86.50
2023-01-26T08:46:53.495Z,86.68
2023-01-26T08:49:15.363Z,86.77
2023-01-26T08:51:31.451Z,86.57
2023-01-26T08:53:46.868Z,86.33
2023-01-26T08:56:00.858Z,85.91
2023-01-26T08:58:15.295Z,86.04
2023-01-26T09:00:34.905Z,86.31
2023-01-26T09:02:48.570Z,86.58
2023-01-26T09:13:03.969Z,86.69
2023-01-26T09:15:23.073Z,86.86
2023-01-26T09:17:36.734Z,86.92
2023-01-26T09:19:50.200Z,86.89
2023-01-26T09:22:03.667Z,86.85
2023-01-26T09:24:17.503Z,86.73
2023-01-26T09:26:32.498Z,86.74
2023-01-26T09:28:46.085Z,87.05
2023-01-26T09:30:59.840Z,87.09
2023-01-26T09:33:13.319Z,87.07
2023-01-26T09:35:28.055Z,87.09
2023-01-26T09:37:43.307Z,87.41
2023-01-26T09:39:57.336Z,87.51
2023-01-26T09:42:38.216Z,87.67
2023-01-26T09:44:59.128Z,87.64
2023-01-26T09:47:25.395Z,87.65
2023-01-26T09:49:52.059Z,87.68
2023-01-26T09:52:14.234Z,87.36
2023-01-26T09:54:34.773Z,87.29
2023-01-26T09:56:48.705Z,87.31
2023-01-26T09:59:07.785Z,87.11
2023-01-26T10:01:30.610Z,87.09
2023-01-26T10:03:50.651Z,87.10
2023-01-26T10:06:16.716Z,86.89
2023-01-26T10:09:18.319Z,86.70
2023-01-26T10:11:39.477Z,86.90
2023-01-26T10:13:59.489Z,86.86
2023-01-26T10:16:15.703Z,86.93
2023-01-26T10:18:34.620Z,86.92
2023-01-26T10:20:51.584Z,86.89
2023-01-26T10:23:09.935Z,86.46
2023-01-26T10:25:27.757Z,86.40
2023-01-26T10:27:42.547Z,86.42
2023-01-26T10:29:55.907Z,86.55
2023-01-26T10:32:10.086Z,86.70
2023-01-26T10:34:27.052Z,86.98
2023-01-26T10:36:40.648Z,87.10
2023-01-26T10:38:55.425Z,87.16
2023-01-26T10:41:11.050Z,87.12
2023-01-26T10:43:28.006Z,87.01
2023-01-26T10:45:51.749Z,87.10
2023-01-26T10:48:21.156Z,87.32
2023-01-26T10:50:36.189Z,87.30
2023-01-26T10:53:03.487Z,87.16
2023-01-26T10:55:27.140Z,87.16
2023-01-26T10:57:45.211Z,87.43
2023-01-26T11:00:02.535Z,87.60
2023-01-26T11:02:31.070Z,87.94
2023-01-26T11:04:45.597Z,88.16
2023-01-26T11:06:59.249Z,88.22
2023-01-26T11:09:25.561Z,88.17
2023-01-26T11:11:39.255Z,88.15
2023-01-26T11:13:56.367Z,87.92
2023-01-26T11:16:17.771Z,87.71
2023-01-26T11:18:44.039Z,87.55
2023-01-26T11:21:03.850Z,87.48
2023-01-26T11:23:37.705Z,87.68
2023-01-26T11:26:06.215Z,87.68
2023-01-26T11:28:43.528Z,87.73
2023-01-26T11:31:14.953Z,87.53
2023-01-26T11:33:37.528Z,87.73
2023-01-26T11:36:00.816Z,87.77
2023-01-26T11:38:34.486Z,87.73
2023-01-26T11:40:59.769Z,87.83
2023-01-26T11:43:35.546Z,87.74
2023-01-26T11:46:10.724Z,87.79
2023-01-26T11:48:33.769Z,88.14
2023-01-26T11:50:56.947Z,88.26
2023-01-26T11:53:43.246Z,88.42
2023-01-26T11:56:13.467Z,88.49
2023-01-26T11:58:39.348Z,88.56
2023-01-26T12:00:58.646Z,88.40
2023-01-26T12:03:19.558Z,88.34
2023-01-26T12:05:41.054Z,88.31
2023-01-26T12:07:58.746Z,88.38
2023-01-26T12:10:17.347Z,88.03
2023-01-26T12:12:38.716Z,88.10
2023-01-26T12:14:59.005Z,88.27
2023-01-26T12:17:35.654Z,88.51
2023-01-26T12:19:58.466Z,88.78
2023-01-26T12:22:22.291Z,88.93
2023-01-26T12:27:25.708Z,88.69
2023-01-26T12:29:49.636Z,88.74
2023-01-26T12:32:08.477Z,89.06
2023-01-26T12:34:27.247Z,88.85
2023-01-26T12:36:51.758Z,88.58
2023-01-26T12:39:26.643Z,88.67
2023-01-26T12:41:50.017Z,88.73
2023-01-26T12:44:23.887Z,88.82
2023-01-26T12:46:42.887Z,88.92
2023-01-26T12:49:04.125Z,89.07
2023-01-26T12:51:24.099Z,89.24
2023-01-26T12:53:43.029Z,89.43
2023-01-26T12:56:01.550Z,89.40
2023-01-26T12:58:18.554Z,89.17
2023-01-26T13:00:33.771Z,89.07
2023-01-26T13:02:52.722Z,88.83
2023-01-26T13:05:09.157Z,88.93
2023-01-26T13:07:43.096Z,88.99
2023-01-26T13:10:23.822Z,89.13
2023-01-26T13:12:54.696Z,89.16
2023-01-26T13:15:17.789Z,89.37
2023-01-26T13:18:03.306Z,89.27
2023-01-26T13:20:54.757Z,89.06
2023-01-26T13:23:30.356Z,88.93
2023-01-26T13:25:43.761Z,88.87
2023-01-26T13:28:03.845Z,88.71
2023-01-26T13:30:45.504Z,89.03
2023-01-26T13:33:05.726Z,89.45
2023-01-26T13:35:20.517Z,89.45
2023-01-26T13:37:40.398Z,89.87
2023-01-26T13:40:00.834Z,89.92
2023-01-26T13:42:23.756Z,90.23
2023-01-26T13:44:46.687Z,90.23
2023-01-26T13:47:05.686Z,90.27
2023-01-26T13:49:41.537Z,90.46
2023-01-26T13:51:54.955Z,90.40
2023-01-26T13:54:12.166Z,90.23
2023-01-26T13:56:32.009Z,90.04
2023-01-26T13:58:45.545Z,90.05
2023-01-26T14:01:08.926Z,89.80
2023-01-26T14:03:29.286Z,89.76
2023-01-26T14:05:43.658Z,89.86
2023-01-26T14:07:57.616Z,89.72
2023-01-26T14:10:18.915Z,89.59
2023-01-26T14:12:35.546Z,89.39
2023-01-26T14:14:54.016Z,89.34
2023-01-26T14:17:09.623Z,89.46
2023-01-26T14:19:24.745Z,89.36
2023-01-26T14:21:48.683Z,89.42
2023-01-26T14:24:05.915Z,89.48
2023-01-26T14:26:27.816Z,89.52
2023-01-26T14:28:45.349Z,89.67
2023-01-26T14:31:03.648Z,89.74
2023-01-26T14:33:20.195Z,89.79
2023-01-26T14:35:33.817Z,89.76
2023-01-26T14:37:47.355Z,89.73
2023-01-26T14:40:23.632Z,89.57
2023-01-26T14:42:36.998Z,89.56
2023-01-26T14:44:50.887Z,89.83
2023-01-26T14:47:10.320Z,90.23
2023-01-26T14:49:28.038Z,90.64
2023-01-26T14:51:42.997Z,90.55
2023-01-26T14:54:02.178Z,90.67
2023-01-26T14:56:23.795Z,90.76
2023-01-26T14:58:38.651Z,90.98
2023-01-26T15:00:54.421Z,90.78
2023-01-26T15:03:15.347Z,90.86
2023-01-26T15:05:35.572Z,90.76
2023-01-26T15:07:54.159Z,90.77
2023-01-26T15:10:08.106Z,90.67
2023-01-26T15:12:23.169Z,90.50
2023-01-26T15:14:42.233Z,90.43
2023-01-26T15:17:01.637Z,90.49
2023-01-26T15:19:29.056Z,90.58
2023-01-26T15:21:45.545Z,90.46
2023-01-26T15:24:01.478Z,90.36
2023-01-26T15:26:17.455Z,90.52
2023-01-26T15:28:31.966Z,90.55
2023-01-26T15:30:49.761Z,90.58
2023-01-26T15:33:03.168Z,90.52
2023-01-26T15:35:27.383Z,90.25
2023-01-26T15:37:41.345Z,90.29
2023-01-26T15:39:55.170Z,90.21
2023-01-26T15:42:19.005Z,90.31
2023-01-26T15:44:33.367Z,90.23
2023-01-26T15:46:47.700Z,90.01
2023-01-26T15:49:01.375Z,90.23
2023-01-26T15:51:18.954Z,90.25
2023-01-26T15:53:33.491Z,90.30
2023-01-26T15:55:47.516Z,90.34
2023-01-26T15:58:01.986Z,90.28
2023-01-26T16:00:20.836Z,90.39
2023-01-26T16:02:34.845Z,90.56
2023-01-26T16:04:49.173Z,90.59
2023-01-26T16:07:02.926Z,90.64
2023-01-26T16:09:16.777Z,90.66
2023-01-26T16:11:33.507Z,90.80
2023-01-26T16:14:02.094Z,91.45
2023-01-26T16:16:19.172Z,91.63
2023-01-26T16:18:32.507Z,91.78
2023-01-26T16:20:48.165Z,91.78
2023-01-26T16:23:02.228Z,91.91
2023-01-26T16:25:26.448Z,92.03
2023-01-26T16:27:40.017Z,92.14
2023-01-26T16:29:54.085Z,92.17
2023-01-26T16:32:18.385Z,92.15
2023-01-26T16:34:32.789Z,92.11
2023-01-26T16:36:46.058Z,92.09
2023-01-26T16:38:59.562Z,92.31
2023-01-26T16:41:22.035Z,92.38
2023-01-26T16:43:36.735Z,92.28
2023-01-26T16:45:50.855Z,92.01
2023-01-26T16:48:04.608Z,91.92
2023-01-26T16:50:18.879Z,92.05
2023-01-26T16:52:32.745Z,92.22
2023-01-26T16:54:47.069Z,92.30
2023-01-26T16:57:00.906Z,92.43
2023-01-26T16:59:14.835Z,92.55
2023-01-26T17:01:30.902Z,92.84
2023-01-26T17:03:44.351Z,93.11
2023-01-26T17:05:59.075Z,93.31
2023-01-26T17:08:13.158Z,93.46
2023-01-26T17:10:30.335Z,93.58
2023-01-26T17:12:43.953Z,93.83
2023-01-26T17:14:57.873Z,93.95
2023-01-26T17:17:12.417Z,94.33
2023-01-26T17:19:25.975Z,94.59
2023-01-26T17:21:39.424Z,94.88
2023-01-26T17:23:54.684Z,95.19
2023-01-26T17:26:09.267Z,95.48
2023-01-26T17:28:23.276Z,95.64
2023-01-26T17:30:36.760Z,95.97
2023-01-26T17:32:50.685Z,96.06
2023-01-26T17:35:05.392Z,96.51
2023-01-26T17:37:19.386Z,96.78
2023-01-26T17:39:33.377Z,97.10
2023-01-26T17:41:46.975Z,97.36
2023-01-26T17:44:00.543Z,97.30
2023-01-26T17:46:15.488Z,97.43
2023-01-26T17:48:30.571Z,97.44
2023-01-26T17:50:50.319Z,97.46
2023-01-26T17:53:04.225Z,97.49
2023-01-26T17:55:17.735Z,97.50
2023-01-26T17:57:31.060Z,97.19
2023-01-26T17:59:45.136Z,97.24
2023-01-26T18:01:58.632Z,97.37
2023-01-26T18:04:12.388Z,97.37
2023-01-26T18:06:26.487Z,97.50
2023-01-26T18:08:40.349Z,97.46
2023-01-26T18:10:54.274Z,97.43
2023-01-26T18:13:07.618Z,97.50
2023-01-26T18:15:21.248Z,97.39
2023-01-26T18:17:34.633Z,97.32
2023-01-26T18:19:47.960Z,97.23
2023-01-26T18:22:01.408Z,97.30
2023-01-26T18:24:16.239Z,97.24
2023-01-26T18:26:32.459Z,97.18
2023-01-26T18:28:45.429Z,97.02
2023-01-26T18:30:59.504Z,97.22
2023-01-26T18:33:13.045Z,97.09
2023-01-26T18:35:26.050Z,97.34
2023-01-26T18:37:39.440Z,97.42
2023-01-26T18:39:53.068Z,97.22
2023-01-26T18:42:06.480Z,97.39
2023-01-26T18:44:19.662Z,97.29
2023-01-26T18:46:35.860Z,97.02
2023-01-26T18:48:49.051Z,96.91
2023-01-26T18:51:02.500Z,97.01
2023-01-26T18:53:15.782Z,96.96
2023-01-26T18:55:28.969Z,96.88
2023-01-26T18:57:43.149Z,96.68
2023-01-26T18:59:56.161Z,96.68
2023-01-26T19:02:09.881Z,96.30
2023-01-26T19:04:24.911Z,96.43
2023-01-26T19:06:38.301Z,95.95
2023-01-26T19:08:56.560Z,95.36
2023-01-26T19:11:12.280Z,95.39
2023-01-26T19:13:25.240Z,95.35
2023-01-26T19:15:39.129Z,95.06
2023-01-26T19:17:52.023Z,94.29
2023-01-26T19:20:05.013Z,93.56
2023-01-26T19:22:18.049Z,92.97
2023-01-26T19:24:32.189Z,92.83
2023-01-26T19:26:45.383Z,92.28
2023-01-26T19:28:58.912Z,92.25
2023-01-26T19:31:12.280Z,91.93
2023-01-26T19:33:30.170Z,91.51
2023-01-26T19:35:44.859Z,91.49
2023-01-26T19:38:01.174Z,91.17
2023-01-26T19:40:16.579Z,91.25
2023-01-26T19:42:29.477Z,91.49
2023-01-26T19:44:42.510Z,91.45
2023-01-26T19:46:58.060Z,90.50
2023-01-26T19:49:12.872Z,88.86
2023-01-26T19:51:27.941Z,88.91
2023-01-26T19:56:14.128Z,89.42
2023-01-26T19:58:27.086Z,89.44
2023-01-26T20:00:40.178Z,88.90
2023-01-26T20:02:54.940Z,88.56
2023-01-26T20:05:08.481Z,88.05
2023-01-26T20:07:21.720Z,88.08
2023-01-26T20:09:38.402Z,87.98
2023-01-26T20:11:52.262Z,87.80
2023-01-26T20:14:06.984Z,87.99
2023-01-26T20:16:20.450Z,87.39
2023-01-26T20:18:34.011Z,87.11
2023-01-26T20:20:51.992Z,87.72
2023-01-26T20:23:04.919Z,87.79
2023-01-26T20:25:17.942Z,87.74
2023-01-26T20:27:31.393Z,86.92
2023-01-26T20:29:44.477Z,87.26
2023-01-26T20:31:57.979Z,87.27
2023-01-26T20:34:10.801Z,87.30
2023-01-26T20:36:27.148Z,86.38
2023-01-26T20:38:41.421Z,86.49
2023-01-26T20:40:54.867Z,85.67
2023-01-26T20:43:07.961Z,85.45
2023-01-26T20:45:21.201Z,85.78
2023-01-26T20:47:34.661Z,85.53
2023-01-26T20:49:47.877Z,85.65
2023-01-26T20:52:01.021Z,85.58
2023-01-26T20:54:17.494Z,85.10
2023-01-26T20:56:30.471Z,84.45
2023-01-26T20:58:47.503Z,84.46
2023-01-26T21:01:06.401Z,83.98
2023-01-26T21:03:20.134Z,84.63
2023-01-26T21:05:37.302Z,84.65
2023-01-26T21:07:51.917Z,85.17
2023-01-26T21:10:04.919Z,84.85
2023-01-26T21:12:19.419Z,84.63
2023-01-26T21:14:32.438Z,83.88
2023-01-26T21:16:46.421Z,83.26
2023-01-26T21:19:00.048Z,83.03
2023-01-26T21:21:15.769Z,82.70
2023-01-26T21:23:32.439Z,82.75
2023-01-26T21:25:45.459Z,82.81
2023-01-26T21:27:58.785Z,82.96
2023-01-26T21:30:14.679Z,82.60
2023-01-26T21:32:28.051Z,82.61
2023-01-26T21:34:42.149Z,82.35
2023-01-26T21:36:56.039Z,82.35
2023-01-26T21:39:13.330Z,82.48
2023-01-26T21:41:44.419Z,82.20
2023-01-26T21:44:00.517Z,81.15
2023-01-26T21:46:13.559Z,82.01
2023-01-26T21:48:36.910Z,82.13
2023-01-26T21:51:06.841Z,82.41
2023-01-26T21:53:20.350Z,82.67
2023-01-26T21:55:33.439Z,82.83
2023-01-26T21:58:03.727Z,82.68
2023-01-26T22:00:18.940Z,82.73
2023-01-26T22:02:32.416Z,82.57
2023-01-26T22:04:45.440Z,82.51
2023-01-26T22:06:58.598Z,82.96
2023-01-26T22:09:12.321Z,82.85
2023-01-26T22:11:25.340Z,82.88
2023-01-26T22:13:41.828Z,82.92
2023-01-26T22:15:55.469Z,83.32
2023-01-26T22:18:09.445Z,83.51
2023-01-26T22:20:23.170Z,82.20
2023-01-26T22:22:35.989Z,82.73
2023-01-26T22:24:49.210Z,83.11
2023-01-26T22:27:02.046Z,82.93
2023-01-26T22:29:16.475Z,83.32
2023-01-26T22:31:32.032Z,83.70
2023-01-26T22:33:47.930Z,83.51
2023-01-26T22:36:08.123Z,83.26
2023-01-26T22:38:21.540Z,83.33
2023-01-26T22:40:35.161Z,83.66
2023-01-26T22:42:48.829Z,83.80
2023-01-26T22:45:01.980Z,84.03
2023-01-26T22:47:15.781Z,83.84
2023-01-26T22:49:29.121Z,83.72
2023-01-26T22:51:43.261Z,84.14
2023-01-26T22:53:58.399Z,83.63
2023-01-26T22:56:12.927Z,83.63
2023-01-26T22:58:26.307Z,83.76
2023-01-26T23:00:40.367Z,83.58
2023-01-26T23:02:54.108Z,83.32
2023-01-26T23:05:07.523Z,83.37
2023-01-26T23:07:21.544Z,83.32
2023-01-26T23:09:34.762Z,83.70
2023-01-26T23:11:48.809Z,83.51
2023-01-26T23:14:03.126Z,83.65
2023-01-26T23:16:17.125Z,83.46
2023-01-26T23:18:31.050Z,83.33
2023-01-26T23:20:45.321Z,83.29
2023-01-26T23:22:58.619Z,83.38
2023-01-26T23:25:29.392Z,83.49
2023-01-26T23:27:43.149Z,83.47
2023-01-26T23:29:56.478Z,83.57
2023-01-26T23:32:09.600Z,83.66
2023-01-26T23:34:26.640Z,83.57
2023-01-26T23:36:40.182Z,83.94
2023-01-26T23:38:53.928Z,83.69
2023-01-26T23:41:09.760Z,83.59
2023-01-26T23:43:23.013Z,83.48
2023-01-26T23:45:36.682Z,83.51
2023-01-26T23:47:49.721Z,83.54
2023-01-26T23:50:03.075Z,83.58
2023-01-26T23:52:16.602Z,83.71
2023-01-26T23:54:30.124Z,83.90
2023-01-26T23:56:43.100Z,83.86
2023-01-26T23:58:55.930Z,83.82
